createdAt,value
2019-05-29T00:02:14.181Z,12.00
2019-05-29T00:07:18.485Z,12.10
2019-05-29T00:12:22.265Z,12.10
2019-05-29T00:17:25.838Z,12.00
2019-05-29T00:22:29.772Z,12.10
2019-05-29T00:27:33.489Z,12.10
2019-05-29T00:32:37.324Z,12.10
2019-05-29T00:37:41.210Z,12.00
2019-05-29T00:42:44.814Z,12.00
2019-05-29T00:47:48.355Z,12.00
2019-05-29T00:52:51.926Z,12.00
2019-05-29T00:57:55.711Z,12.00
2019-05-29T01:02:59.312Z,12.00
2019-05-29T01:08:02.986Z,12.00
2019-05-29T01:13:06.624Z,12.00
2019-05-29T01:18:11.622Z,12.00
2019-05-29T01:23:16.245Z,12.10
2019-05-29T01:28:21.016Z,11.90
2019-05-29T01:33:25.097Z,11.70
2019-05-29T01:38:28.736Z,11.30
2019-05-29T01:43:32.354Z,11.20
2019-05-29T01:48:35.974Z,11.40
2019-05-29T01:53:39.681Z,11.60
2019-05-29T01:58:43.170Z,11.50
2019-05-29T02:03:47.170Z,11.40
2019-05-29T02:08:50.806Z,11.20
2019-05-29T02:13:54.604Z,11.00
2019-05-29T02:18:58.169Z,11.10
2019-05-29T02:24:01.805Z,11.10
2019-05-29T02:29:05.427Z,11.00
2019-05-29T02:34:09.222Z,10.70
2019-05-29T02:39:12.974Z,10.90
2019-05-29T02:44:16.678Z,10.80
2019-05-29T02:49:21.482Z,11.10
2019-05-29T02:54:27.016Z,11.20
2019-05-29T02:59:32.100Z,11.30
2019-05-29T03:04:36.290Z,11.40
2019-05-29T03:09:40.421Z,11.40
2019-05-29T03:14:44.081Z,11.50
2019-05-29T03:19:47.753Z,11.30
2019-05-29T03:24:51.390Z,10.90
2019-05-29T03:29:54.966Z,10.80
2019-05-29T03:34:58.554Z,10.50
2019-05-29T03:40:02.151Z,10.60
2019-05-29T03:45:06.906Z,10.40
2019-05-29T03:50:15.459Z,10.40
2019-05-29T03:55:16.103Z,10.30
2019-05-29T04:00:20.239Z,10.30
2019-05-29T04:05:23.947Z,10.20
2019-05-29T04:10:32.929Z,9.90
2019-05-29T04:15:38.656Z,9.80
2019-05-29T04:20:44.347Z,9.90
2019-05-29T04:25:51.015Z,9.80
2019-05-29T04:30:54.558Z,9.80
2019-05-29T04:35:58.226Z,9.90
2019-05-29T04:41:02.162Z,9.70
2019-05-29T04:46:05.741Z,9.80
2019-05-29T04:51:09.408Z,9.50
2019-05-29T04:56:13.051Z,9.70
2019-05-29T05:01:16.720Z,9.20
2019-05-29T05:06:20.320Z,9.10
2019-05-29T05:11:23.927Z,9.00
2019-05-29T05:16:27.502Z,9.00
2019-05-29T05:21:31.948Z,8.90
2019-05-29T05:26:36.297Z,8.90
2019-05-29T05:31:40.798Z,8.80
2019-05-29T05:36:44.540Z,8.80
2019-05-29T05:41:48.128Z,8.90
2019-05-29T05:46:51.835Z,8.90
2019-05-29T05:51:55.532Z,8.80
2019-05-29T05:56:59.116Z,8.90
2019-05-29T06:02:03.094Z,8.90
2019-05-29T06:07:06.714Z,8.90
2019-05-29T06:12:10.309Z,8.90
2019-05-29T06:17:14.218Z,8.90
2019-05-29T06:22:17.844Z,9.00
2019-05-29T06:27:21.549Z,9.00
2019-05-29T06:32:25.109Z,9.00
2019-05-29T06:37:28.704Z,9.10
2019-05-29T06:42:33.517Z,9.20
2019-05-29T06:47:38.583Z,9.40
2019-05-29T06:52:43.510Z,9.40
2019-05-29T06:57:48.327Z,9.40
2019-05-29T07:02:52.126Z,9.60
2019-05-29T07:07:55.795Z,9.80
2019-05-29T07:12:59.342Z,9.90
2019-05-29T07:18:03.558Z,9.90
2019-05-29T07:23:07.225Z,10.10
2019-05-29T07:28:10.952Z,10.10
2019-05-29T07:33:14.558Z,10.20
2019-05-29T07:38:19.213Z,10.20
2019-05-29T07:43:23.060Z,10.50
2019-05-29T07:48:26.826Z,10.50
2019-05-29T07:53:33.619Z,10.60
2019-05-29T07:58:35.871Z,10.80
2019-05-29T08:03:41.093Z,11.10
2019-05-29T08:08:45.271Z,11.20
2019-05-29T08:13:50.014Z,11.10
2019-05-29T08:18:53.831Z,11.30
2019-05-29T08:23:57.386Z,11.70
2019-05-29T08:29:01.085Z,11.70
2019-05-29T08:34:05.058Z,11.50
2019-05-29T08:39:08.919Z,11.90
2019-05-29T08:44:12.567Z,12.10
2019-05-29T08:49:16.190Z,12.10
2019-05-29T08:54:23.905Z,12.30
2019-05-29T08:59:25.141Z,12.20
2019-05-29T09:04:29.146Z,12.30
2019-05-29T09:09:32.970Z,12.40
2019-05-29T09:14:36.581Z,12.30
2019-05-29T09:19:40.155Z,12.30
2019-05-29T09:24:44.079Z,12.30
2019-05-29T09:29:48.118Z,12.20
2019-05-29T09:34:51.764Z,12.10
2019-05-29T09:39:55.442Z,12.00
2019-05-29T09:44:59.106Z,12.10
2019-05-29T09:50:03.156Z,12.20
2019-05-29T09:55:07.530Z,12.50
2019-05-29T10:00:11.971Z,12.50
2019-05-29T10:05:16.008Z,12.70
2019-05-29T10:10:21.430Z,12.60
2019-05-29T10:15:25.298Z,12.30
2019-05-29T10:20:30.573Z,12.50
2019-05-29T10:25:34.143Z,12.50
2019-05-29T10:30:37.906Z,12.60
2019-05-29T10:35:42.575Z,12.90
2019-05-29T10:40:56.808Z,13.00
2019-05-29T10:45:52.051Z,13.20
2019-05-29T10:50:55.871Z,13.10
2019-05-29T10:55:59.465Z,13.10
2019-05-29T11:01:03.429Z,13.20
2019-05-29T11:06:07.118Z,13.50
2019-05-29T11:11:10.671Z,13.70
2019-05-29T11:16:14.333Z,13.90
2019-05-29T11:21:18.167Z,14.10
2019-05-29T11:26:21.810Z,14.00
2019-05-29T11:31:25.626Z,14.10
2019-05-29T11:36:29.480Z,14.10
2019-05-29T11:41:33.135Z,14.00
2019-05-29T11:46:36.806Z,13.70
2019-05-29T11:51:44.080Z,14.00
2019-05-29T11:56:45.773Z,14.20
2019-05-29T12:01:50.885Z,14.20
2019-05-29T12:06:55.385Z,14.60
2019-05-29T12:12:00.345Z,14.70
2019-05-29T12:17:04.283Z,14.60
2019-05-29T12:22:07.976Z,14.70
2019-05-29T12:27:11.736Z,14.70
2019-05-29T12:32:15.495Z,14.60
2019-05-29T12:37:19.179Z,14.60
2019-05-29T12:42:22.777Z,14.50
2019-05-29T12:47:26.475Z,14.50
2019-05-29T12:52:30.127Z,14.50
2019-05-29T12:57:33.772Z,14.30
2019-05-29T13:02:37.586Z,14.30
2019-05-29T13:07:42.099Z,14.50
2019-05-29T13:12:45.887Z,14.50
2019-05-29T13:17:49.515Z,14.60
2019-05-29T13:22:53.229Z,14.30
2019-05-29T13:27:59.357Z,13.90
2019-05-29T13:33:03.631Z,13.80
2019-05-29T13:38:07.778Z,14.10
2019-05-29T13:43:15.387Z,14.20
2019-05-29T13:48:16.686Z,14.20
2019-05-29T13:53:20.270Z,14.20
2019-05-29T13:58:24.075Z,14.30
2019-05-29T14:03:27.711Z,14.30
2019-05-29T14:08:31.387Z,14.30
2019-05-29T14:13:35.014Z,14.00
2019-05-29T14:18:38.757Z,14.00
2019-05-29T14:23:42.406Z,14.20
2019-05-29T14:28:46.003Z,14.50
2019-05-29T14:33:49.638Z,15.00
2019-05-29T14:38:53.528Z,15.30
2019-05-29T14:43:57.070Z,15.20
2019-05-29T14:49:02.185Z,14.80
2019-05-29T14:54:06.854Z,14.70
2019-05-29T14:59:11.107Z,14.30
2019-05-29T15:04:14.904Z,14.50
2019-05-29T15:09:18.595Z,14.50
2019-05-29T15:14:22.283Z,14.60
2019-05-29T15:19:25.978Z,15.10
2019-05-29T15:24:29.560Z,15.20
2019-05-29T15:29:33.255Z,15.10
2019-05-29T15:34:36.920Z,15.00
2019-05-29T15:39:40.499Z,15.00
2019-05-29T15:44:44.459Z,14.80
2019-05-29T15:49:48.283Z,14.40
2019-05-29T15:54:51.856Z,14.70
2019-05-29T15:59:55.539Z,14.70
2019-05-29T16:04:59.252Z,14.70
2019-05-29T16:10:03.080Z,14.70
2019-05-29T16:15:09.106Z,14.90
2019-05-29T16:20:14.405Z,14.50
2019-05-29T16:25:19.117Z,14.40
2019-05-29T16:30:22.920Z,14.20
2019-05-29T16:35:26.490Z,14.20
2019-05-29T16:40:31.115Z,14.10
2019-05-29T16:45:34.751Z,14.10
2019-05-29T16:50:38.974Z,14.10
2019-05-29T16:55:53.437Z,14.00
2019-05-29T17:00:48.053Z,14.00
2019-05-29T17:05:51.674Z,14.00
2019-05-29T17:10:55.278Z,14.10
2019-05-29T17:15:58.883Z,14.00
2019-05-29T17:21:02.721Z,13.90
2019-05-29T17:26:10.831Z,13.90
2019-05-29T17:31:11.745Z,13.90
2019-05-29T17:36:16.756Z,13.90
2019-05-29T17:41:21.191Z,14.00
2019-05-29T17:46:25.934Z,14.20
2019-05-29T17:51:29.713Z,14.30
2019-05-29T17:56:36.550Z,14.60
2019-05-29T18:01:38.743Z,14.60
2019-05-29T18:06:42.475Z,14.40
2019-05-29T18:11:47.491Z,14.00
2019-05-29T18:16:51.489Z,13.80
2019-05-29T18:21:54.986Z,13.70
2019-05-29T18:26:59.303Z,13.50
2019-05-29T18:32:04.140Z,13.30
2019-05-29T18:37:07.885Z,13.40
2019-05-29T18:42:11.523Z,13.30
2019-05-29T18:47:15.223Z,13.20
2019-05-29T18:52:19.242Z,13.20
2019-05-29T18:57:22.976Z,13.10
2019-05-29T19:02:27.492Z,13.00
2019-05-29T19:07:31.793Z,12.90
2019-05-29T19:12:35.900Z,12.80
2019-05-29T19:17:40.238Z,12.70
2019-05-29T19:22:44.381Z,12.50
2019-05-29T19:27:48.388Z,12.20
2019-05-29T19:32:52.843Z,11.60
2019-05-29T19:37:56.552Z,11.30
2019-05-29T19:43:00.108Z,11.00
2019-05-29T19:48:03.881Z,10.90
2019-05-29T19:53:07.551Z,10.70
2019-05-29T19:58:11.338Z,10.50
2019-05-29T20:03:15.012Z,10.70
2019-05-29T20:08:18.657Z,10.80
2019-05-29T20:13:22.226Z,10.80
2019-05-29T20:18:26.026Z,10.80
2019-05-29T20:23:30.552Z,11.10
2019-05-29T20:28:34.280Z,11.10
2019-05-29T20:33:38.682Z,10.90
2019-05-29T20:38:42.270Z,10.70
2019-05-29T20:43:45.950Z,10.30
2019-05-29T20:48:49.657Z,10.10
2019-05-29T20:53:53.218Z,10.20
2019-05-29T20:58:56.890Z,10.20
2019-05-29T21:04:00.594Z,10.10
2019-05-29T21:09:06.103Z,9.90
2019-05-29T21:14:09.810Z,9.50
2019-05-29T21:19:13.470Z,9.50
2019-05-29T21:24:17.018Z,8.90
2019-05-29T21:29:20.702Z,8.40
2019-05-29T21:34:24.325Z,8.60
2019-05-29T21:39:28.034Z,8.40
2019-05-29T21:44:32.279Z,8.40
2019-05-29T21:49:37.179Z,8.20
2019-05-29T21:54:41.453Z,8.20
2019-05-29T21:59:45.932Z,8.20
2019-05-29T22:04:49.700Z,8.30
2019-05-29T22:09:54.479Z,8.40
2019-05-29T22:14:58.966Z,8.00
2019-05-29T22:20:03.268Z,7.70
2019-05-29T22:25:08.114Z,7.60
2019-05-29T22:30:12.969Z,7.60
2019-05-29T22:35:16.985Z,7.20
2019-05-29T22:40:20.639Z,7.40
2019-05-29T22:45:24.365Z,7.60
2019-05-29T22:50:28.034Z,7.50
2019-05-29T22:55:31.974Z,7.30
2019-05-29T23:00:35.668Z,6.90
2019-05-29T23:05:39.326Z,7.30
2019-05-29T23:10:43.041Z,7.30
2019-05-29T23:15:46.619Z,7.20
2019-05-29T23:20:50.277Z,7.00
2019-05-29T23:25:54.536Z,7.10
2019-05-29T23:30:58.778Z,6.80
2019-05-29T23:36:03.252Z,6.90
2019-05-29T23:41:06.938Z,6.80
2019-05-29T23:46:10.849Z,6.60
2019-05-29T23:51:14.434Z,6.30
2019-05-29T23:56:18.021Z,6.30
